createdAt,value
2018-12-24T00:01:03.619Z,5.43
2018-12-24T00:03:32.533Z,4.87
2018-12-24T00:06:01.443Z,5.43
2018-12-24T00:08:30.380Z,6.28
2018-12-24T00:10:59.275Z,6.72
2018-12-24T00:13:28.188Z,7.70
2018-12-24T00:15:57.062Z,5.17
2018-12-24T00:18:25.956Z,4.70
2018-12-24T00:20:54.819Z,6.30
2018-12-24T00:23:23.712Z,4.80
2018-12-24T00:25:52.621Z,5.90
2018-12-24T00:28:21.517Z,5.23
2018-12-24T00:30:50.398Z,7.67
2018-12-24T00:33:19.251Z,9.10
2018-12-24T00:35:48.121Z,9.73
2018-12-24T00:38:16.997Z,7.77
2018-12-24T00:40:45.887Z,6.73
2018-12-24T00:43:14.765Z,6.40
2018-12-24T00:45:43.718Z,5.60
2018-12-24T00:48:12.595Z,8.13
2018-12-24T00:50:41.469Z,9.77
2018-12-24T00:53:10.342Z,5.93
2018-12-24T00:55:39.205Z,5.73
2018-12-24T00:58:08.151Z,10.68
2018-12-24T01:00:37.048Z,6.87
2018-12-24T01:03:05.994Z,5.30
2018-12-24T01:05:34.911Z,5.77
2018-12-24T01:08:03.775Z,7.13
2018-12-24T01:10:32.665Z,8.10
2018-12-24T01:13:01.557Z,5.47
2018-12-24T01:15:30.442Z,8.03
2018-12-24T01:17:59.320Z,7.20
2018-12-24T01:20:28.188Z,6.23
2018-12-24T01:22:57.075Z,5.53
2018-12-24T01:25:25.977Z,7.00
2018-12-24T01:27:54.882Z,4.40
2018-12-24T01:30:23.777Z,4.80
2018-12-24T01:32:52.647Z,10.23
2018-12-24T01:35:21.549Z,7.70
2018-12-24T01:37:50.401Z,6.57
2018-12-24T01:40:19.309Z,7.00
2018-12-24T01:42:48.207Z,7.63
2018-12-24T01:45:17.125Z,5.33
2018-12-24T01:47:45.975Z,7.90
2018-12-24T01:50:14.874Z,5.30
2018-12-24T01:52:43.770Z,5.40
2018-12-24T01:55:12.707Z,5.80
2018-12-24T01:57:41.582Z,6.13
2018-12-24T02:00:10.486Z,6.23
2018-12-24T02:02:39.406Z,4.53
2018-12-24T02:05:08.371Z,6.17
2018-12-24T02:07:37.258Z,9.03
2018-12-24T02:10:06.136Z,5.43
2018-12-24T02:12:42.161Z,9.17
2018-12-24T02:15:03.902Z,4.83
2018-12-24T02:17:32.788Z,5.57
2018-12-24T02:20:01.651Z,7.15
2018-12-24T02:22:30.539Z,6.40
2018-12-24T02:24:59.400Z,6.70
2018-12-24T02:27:28.320Z,5.70
2018-12-24T02:29:57.198Z,7.78
2018-12-24T02:32:26.095Z,8.27
2018-12-24T02:34:54.964Z,8.30
2018-12-24T02:37:23.870Z,4.93
2018-12-24T02:39:52.750Z,5.83
2018-12-24T02:42:21.602Z,7.13
2018-12-24T02:44:50.518Z,6.63
2018-12-24T02:47:19.396Z,5.23
2018-12-24T02:49:48.298Z,7.03
2018-12-24T02:52:17.180Z,6.07
2018-12-24T02:54:46.079Z,3.83
2018-12-24T02:57:14.968Z,3.80
2018-12-24T02:59:43.878Z,5.00
2018-12-24T03:02:12.746Z,4.07
2018-12-24T03:04:41.637Z,4.50
2018-12-24T03:07:10.531Z,5.37
2018-12-24T03:09:39.407Z,5.50
2018-12-24T03:12:08.297Z,5.53
2018-12-24T03:14:37.200Z,6.60
2018-12-24T03:17:06.112Z,12.10
2018-12-24T03:19:34.999Z,5.27
2018-12-24T03:22:03.904Z,3.47
2018-12-24T03:24:32.763Z,7.45
2018-12-24T03:27:01.665Z,4.20
2018-12-24T03:29:30.547Z,6.73
2018-12-24T03:31:59.444Z,5.67
2018-12-24T03:34:28.391Z,8.90
2018-12-24T03:36:57.270Z,6.45
2018-12-24T03:39:26.135Z,4.90
2018-12-24T03:41:55.111Z,3.43
2018-12-24T03:44:24.029Z,4.27
2018-12-24T03:46:52.823Z,7.10
2018-12-24T03:49:21.750Z,4.03
2018-12-24T03:51:50.613Z,3.20
2018-12-24T03:54:19.477Z,6.53
2018-12-24T03:56:48.391Z,3.47
2018-12-24T03:59:17.272Z,4.47
2018-12-24T04:01:46.182Z,5.63
2018-12-24T04:04:15.084Z,5.67
2018-12-24T04:06:44.012Z,5.30
2018-12-24T04:09:12.923Z,5.57
2018-12-24T04:11:41.849Z,4.47
2018-12-24T04:14:10.710Z,2.63
2018-12-24T04:16:39.626Z,3.50
2018-12-24T04:19:08.504Z,7.93
2018-12-24T04:21:37.401Z,4.03
2018-12-24T04:24:06.425Z,4.47
2018-12-24T04:26:35.269Z,5.37
2018-12-24T04:29:04.221Z,5.70
2018-12-24T04:31:33.148Z,5.57
2018-12-24T04:34:02.046Z,4.80
2018-12-24T04:36:31.077Z,4.77
2018-12-24T04:38:59.975Z,5.23
2018-12-24T04:41:28.913Z,4.67
2018-12-24T04:43:59.175Z,3.50
2018-12-24T04:46:26.701Z,3.23
2018-12-24T04:48:55.584Z,4.47
2018-12-24T04:51:24.447Z,4.83
2018-12-24T04:53:53.353Z,6.57
2018-12-24T04:56:22.210Z,4.63
2018-12-24T04:58:51.099Z,4.37
2018-12-24T05:01:19.972Z,5.80
2018-12-24T05:03:48.871Z,5.03
2018-12-24T05:06:17.738Z,5.90
2018-12-24T05:08:46.642Z,6.20
2018-12-24T05:11:15.542Z,4.17
2018-12-24T05:13:44.435Z,5.70
2018-12-24T05:16:13.324Z,7.43
2018-12-24T05:18:42.216Z,8.23
2018-12-24T05:21:11.106Z,5.33
2018-12-24T05:23:39.996Z,5.47
2018-12-24T05:26:08.890Z,4.33
2018-12-24T05:28:37.794Z,5.73
2018-12-24T05:31:06.716Z,5.10
2018-12-24T05:33:35.612Z,7.53
2018-12-24T05:36:04.553Z,3.53
2018-12-24T05:38:33.434Z,5.30
2018-12-24T05:41:02.341Z,3.83
2018-12-24T05:43:31.222Z,4.63
2018-12-24T05:46:00.136Z,6.00
2018-12-24T05:48:29.061Z,6.53
2018-12-24T05:50:57.976Z,2.23
2018-12-24T05:53:26.873Z,2.67
2018-12-24T05:55:55.763Z,6.60
2018-12-24T05:58:24.656Z,3.63
2018-12-24T06:00:53.518Z,6.08
2018-12-24T06:03:22.421Z,6.27
2018-12-24T06:05:51.299Z,6.90
2018-12-24T06:08:20.211Z,5.13
2018-12-24T06:10:49.099Z,4.27
2018-12-24T06:13:18.000Z,5.73
2018-12-24T06:15:46.889Z,3.73
2018-12-24T06:18:15.890Z,8.10
2018-12-24T06:20:44.780Z,5.00
2018-12-24T06:23:13.668Z,5.83
2018-12-24T06:25:42.555Z,6.17
2018-12-24T06:28:11.450Z,4.20
2018-12-24T06:30:40.323Z,4.90
2018-12-24T06:33:09.293Z,6.17
2018-12-24T06:35:38.190Z,3.87
2018-12-24T06:38:07.128Z,4.37
2018-12-24T06:40:36.019Z,6.63
2018-12-24T06:43:04.986Z,6.37
2018-12-24T06:45:33.850Z,6.87
2018-12-24T06:48:02.767Z,5.57
2018-12-24T06:50:31.673Z,3.83
2018-12-24T06:53:00.589Z,5.43
2018-12-24T06:55:29.444Z,7.10
2018-12-24T06:57:58.338Z,2.57
2018-12-24T07:00:27.229Z,5.63
2018-12-24T07:02:56.157Z,5.10
2018-12-24T07:05:25.026Z,2.60
2018-12-24T07:07:53.992Z,7.47
2018-12-24T07:10:22.898Z,3.30
2018-12-24T07:12:51.784Z,4.63
2018-12-24T07:15:20.689Z,4.10
2018-12-24T07:17:49.587Z,4.57
2018-12-24T07:20:18.467Z,5.17
2018-12-24T07:22:47.363Z,3.77
2018-12-24T07:25:16.228Z,5.77
2018-12-24T07:27:45.159Z,4.70
2018-12-24T07:30:14.007Z,6.80
2018-12-24T07:32:42.897Z,3.10
2018-12-24T07:35:11.808Z,8.80
2018-12-24T07:37:40.679Z,7.67
2018-12-24T07:40:09.621Z,11.53
2018-12-24T07:42:38.495Z,9.65
2018-12-24T07:45:07.492Z,8.20
2018-12-24T07:47:36.376Z,4.90
2018-12-24T07:50:06.018Z,6.67
2018-12-24T07:52:34.886Z,5.27
2018-12-24T07:55:03.788Z,4.73
2018-12-24T07:57:32.669Z,5.43
2018-12-24T08:00:01.535Z,5.47
2018-12-24T08:02:30.568Z,4.00
2018-12-24T08:04:59.474Z,8.60
2018-12-24T08:07:28.353Z,5.37
2018-12-24T08:09:57.264Z,6.57
2018-12-24T08:12:26.156Z,7.30
2018-12-24T08:14:55.054Z,7.23
2018-12-24T08:17:24.268Z,4.17
2018-12-24T08:19:53.172Z,3.93
2018-12-24T08:22:22.025Z,5.85
2018-12-24T08:24:50.909Z,4.33
2018-12-24T08:27:19.783Z,3.83
2018-12-24T08:29:48.735Z,5.00
2018-12-24T08:32:17.599Z,4.20
2018-12-24T08:34:46.534Z,2.73
2018-12-24T08:37:15.422Z,2.87
2018-12-24T08:39:44.312Z,4.73
2018-12-24T08:42:13.192Z,2.33
2018-12-24T08:44:42.228Z,4.33
2018-12-24T08:47:10.961Z,4.13
2018-12-24T08:49:39.892Z,5.60
2018-12-24T08:52:08.897Z,4.90
2018-12-24T08:54:37.779Z,9.37
2018-12-24T08:57:06.804Z,14.00
2018-12-24T08:59:35.650Z,5.27
2018-12-24T09:02:04.666Z,3.13
2018-12-24T09:04:33.466Z,8.03
2018-12-24T09:07:02.358Z,3.67
2018-12-24T09:09:31.244Z,3.67
2018-12-24T09:12:00.106Z,8.10
2018-12-24T09:14:29.016Z,8.10
2018-12-24T09:16:57.949Z,10.00
2018-12-24T09:19:26.838Z,7.30
2018-12-24T09:21:55.738Z,6.87
2018-12-24T09:24:24.617Z,7.47
2018-12-24T09:26:53.533Z,7.13
2018-12-24T09:29:22.465Z,5.90
2018-12-24T09:31:51.347Z,6.10
2018-12-24T09:34:20.238Z,3.37
2018-12-24T09:36:49.143Z,8.33
2018-12-24T09:39:18.068Z,6.83
2018-12-24T09:41:46.867Z,6.00
2018-12-24T09:44:15.777Z,6.93
2018-12-24T09:46:44.677Z,6.77
2018-12-24T09:49:13.567Z,5.63
2018-12-24T09:51:42.564Z,5.47
2018-12-24T09:54:11.637Z,6.37
2018-12-24T09:56:40.643Z,4.27
2018-12-24T09:59:09.737Z,6.27
2018-12-24T10:01:38.705Z,3.43
2018-12-24T10:04:29.700Z,3.97
2018-12-24T10:07:06.790Z,5.60
2018-12-24T10:09:35.684Z,4.37
2018-12-24T10:12:04.569Z,4.53
2018-12-24T10:14:33.586Z,5.50
2018-12-24T10:17:02.415Z,5.50
2018-12-24T10:19:31.274Z,3.15
2018-12-24T10:22:00.203Z,5.55
2018-12-24T10:24:29.072Z,3.30
2018-12-24T10:26:58.168Z,4.83
2018-12-24T10:29:27.055Z,6.72
2018-12-24T10:31:55.966Z,3.85
2018-12-24T10:34:25.185Z,7.70
2018-12-24T10:36:54.003Z,3.65
2018-12-24T10:39:22.874Z,2.47
2018-12-24T10:41:51.768Z,3.17
2018-12-24T10:44:20.681Z,3.40
2018-12-24T10:46:49.587Z,5.10
2018-12-24T10:49:18.488Z,3.65
2018-12-24T10:51:47.456Z,2.90
2018-12-24T10:54:16.296Z,2.47
2018-12-24T10:56:45.162Z,5.45
2018-12-24T10:59:14.066Z,3.45
2018-12-24T11:01:44.715Z,2.60
2018-12-24T11:04:11.831Z,4.12
2018-12-24T11:06:40.740Z,3.90
2018-12-24T11:09:09.745Z,5.12
2018-12-24T11:11:39.188Z,3.05
2018-12-24T11:14:08.128Z,3.12
2018-12-24T11:16:37.008Z,1.90
2018-12-24T11:19:05.948Z,2.60
2018-12-24T11:21:34.832Z,1.40
2018-12-24T11:24:03.712Z,1.62
2018-12-24T11:26:32.635Z,1.75
2018-12-24T11:29:01.502Z,1.57
2018-12-24T11:31:30.406Z,3.37
2018-12-24T11:33:59.297Z,3.50
2018-12-24T11:36:28.199Z,2.27
2018-12-24T11:38:57.068Z,1.37
2018-12-24T11:41:25.929Z,2.08
2018-12-24T11:43:54.813Z,1.45
2018-12-24T11:46:26.553Z,2.37
2018-12-24T11:48:55.467Z,2.70
2018-12-24T11:51:24.369Z,2.85
2018-12-24T11:53:53.279Z,2.10
2018-12-24T11:56:22.338Z,3.52
2018-12-24T11:58:51.232Z,3.63
2018-12-24T12:01:20.105Z,1.40
2018-12-24T12:03:49.020Z,2.30
2018-12-24T12:06:19.915Z,2.47
2018-12-24T12:08:46.868Z,1.73
2018-12-24T12:11:15.760Z,1.43
2018-12-24T12:13:44.663Z,3.80
2018-12-24T12:16:13.553Z,2.13
2018-12-24T12:18:42.498Z,2.40
2018-12-24T12:21:11.370Z,3.10
2018-12-24T12:23:40.281Z,2.43
2018-12-24T12:26:09.215Z,1.60
2018-12-24T12:28:38.128Z,1.13
2018-12-24T12:31:07.198Z,0.97
2018-12-24T12:33:36.143Z,2.00
2018-12-24T12:36:05.135Z,2.23
2018-12-24T12:38:34.013Z,2.60
2018-12-24T12:41:02.988Z,0.93
2018-12-24T12:43:31.849Z,1.30
2018-12-24T12:46:00.736Z,2.73
2018-12-24T12:48:29.642Z,2.10
2018-12-24T12:50:58.538Z,0.90
2018-12-24T12:53:27.453Z,0.70
2018-12-24T12:55:56.342Z,1.67
2018-12-24T12:58:25.224Z,1.47
2018-12-24T13:00:54.108Z,2.33
2018-12-24T13:03:23.023Z,2.30
2018-12-24T13:05:51.893Z,1.90
2018-12-24T13:08:20.808Z,2.43
2018-12-24T13:10:49.687Z,2.30
2018-12-24T13:13:20.071Z,1.70
2018-12-24T13:15:48.952Z,2.20
2018-12-24T13:18:17.842Z,2.27
2018-12-24T13:20:46.727Z,2.23
2018-12-24T13:23:15.619Z,4.40
2018-12-24T13:25:44.531Z,2.87
2018-12-24T13:28:13.402Z,2.30
2018-12-24T13:30:42.294Z,2.83
2018-12-24T13:33:11.145Z,2.07
2018-12-24T13:35:40.049Z,1.97
2018-12-24T13:38:09.152Z,2.03
2018-12-24T13:40:38.097Z,2.93
2018-12-24T13:43:07.086Z,3.23
2018-12-24T13:45:35.959Z,3.33
2018-12-24T13:48:04.964Z,1.77
2018-12-24T13:50:33.854Z,1.50
2018-12-24T13:53:02.746Z,2.43
2018-12-24T13:55:31.644Z,2.97
2018-12-24T13:58:00.524Z,2.00
2018-12-24T14:00:29.424Z,1.63
2018-12-24T14:02:58.311Z,4.50
2018-12-24T14:05:27.222Z,2.03
2018-12-24T14:07:56.157Z,3.87
2018-12-24T14:10:25.125Z,2.53
2018-12-24T14:12:53.966Z,2.87
2018-12-24T14:15:22.858Z,1.83
2018-12-24T14:17:52.818Z,2.37
2018-12-24T14:20:21.702Z,1.20
2018-12-24T14:22:50.688Z,1.70
2018-12-24T14:25:19.503Z,2.27
2018-12-24T14:27:48.426Z,3.73
2018-12-24T14:30:17.293Z,2.40
2018-12-24T14:32:46.209Z,2.07
2018-12-24T14:35:15.075Z,2.07
2018-12-24T14:37:44.006Z,2.60
2018-12-24T14:40:12.881Z,3.30
2018-12-24T14:42:41.811Z,2.00
2018-12-24T14:45:10.711Z,2.20
2018-12-24T14:47:39.717Z,3.37
2018-12-24T14:50:08.930Z,1.73
2018-12-24T14:52:37.806Z,2.70
2018-12-24T14:55:06.918Z,2.10
2018-12-24T14:57:35.786Z,1.63
2018-12-24T15:00:05.910Z,2.70
2018-12-24T15:02:34.807Z,4.27
2018-12-24T15:05:03.859Z,2.67
2018-12-24T15:07:32.773Z,3.30
2018-12-24T15:10:01.698Z,3.55
2018-12-24T15:12:30.574Z,3.43
2018-12-24T15:14:59.490Z,3.00
2018-12-24T15:17:28.408Z,3.00
2018-12-24T15:19:57.329Z,1.77
2018-12-24T15:22:26.203Z,3.17
2018-12-24T15:24:55.094Z,2.80
2018-12-24T15:27:23.994Z,2.87
2018-12-24T15:29:52.896Z,2.83
2018-12-24T15:32:21.795Z,1.70
2018-12-24T15:34:50.701Z,3.03
2018-12-24T15:37:19.614Z,1.87
2018-12-24T15:39:48.518Z,2.83
2018-12-24T15:42:17.410Z,2.47
2018-12-24T15:44:46.318Z,4.00
2018-12-24T15:47:15.210Z,1.47
2018-12-24T15:49:44.094Z,3.30
2018-12-24T15:52:13.002Z,2.52
2018-12-24T15:54:41.872Z,3.83
2018-12-24T15:57:10.776Z,5.57
2018-12-24T15:59:39.650Z,1.87
2018-12-24T16:02:08.534Z,5.23
2018-12-24T16:04:37.396Z,1.77
2018-12-24T16:07:06.319Z,1.50
2018-12-24T16:09:35.277Z,2.77
2018-12-24T16:12:04.160Z,4.17
2018-12-24T16:14:33.071Z,3.45
2018-12-24T16:17:01.943Z,4.00
2018-12-24T16:19:30.850Z,4.97
2018-12-24T16:21:59.840Z,2.50
2018-12-24T16:24:28.743Z,3.43
2018-12-24T16:26:57.648Z,3.23
2018-12-24T16:29:26.584Z,2.10
2018-12-24T16:31:55.478Z,1.70
2018-12-24T16:34:24.435Z,3.40
2018-12-24T16:36:53.314Z,3.47
2018-12-24T16:39:22.219Z,2.10
2018-12-24T16:41:51.121Z,1.70
2018-12-24T16:44:20.020Z,2.30
2018-12-24T16:46:48.956Z,1.57
2018-12-24T16:49:17.839Z,4.23
2018-12-24T16:51:46.739Z,2.67
2018-12-24T16:54:15.618Z,1.93
2018-12-24T16:56:44.508Z,3.27
2018-12-24T16:59:13.393Z,3.87
2018-12-24T17:01:42.304Z,3.43
2018-12-24T17:04:11.166Z,1.30
2018-12-24T17:06:40.070Z,3.67
2018-12-24T17:09:08.955Z,3.67
2018-12-24T17:11:37.867Z,6.87
2018-12-24T17:14:06.798Z,3.13
2018-12-24T17:16:35.676Z,4.67
2018-12-24T17:19:04.616Z,4.00
2018-12-24T17:21:33.515Z,4.10
2018-12-24T17:24:02.396Z,2.93
2018-12-24T17:26:31.303Z,2.53
2018-12-24T17:29:00.182Z,4.03
2018-12-24T17:31:29.059Z,6.40
2018-12-24T17:33:57.965Z,7.53
2018-12-24T17:36:26.877Z,3.53
2018-12-24T17:38:55.772Z,2.17
2018-12-24T17:41:24.654Z,4.00
2018-12-24T17:43:53.552Z,3.40
2018-12-24T17:46:22.416Z,5.37
2018-12-24T17:48:51.300Z,3.27
2018-12-24T17:51:20.210Z,6.23
2018-12-24T17:53:49.131Z,18.10
2018-12-24T17:56:18.084Z,16.13
2018-12-24T17:58:46.992Z,11.10
2018-12-24T18:01:15.856Z,6.90
2018-12-24T18:03:44.766Z,4.70
2018-12-24T18:06:13.679Z,5.80
2018-12-24T18:08:42.550Z,4.30
2018-12-24T18:11:11.458Z,3.30
2018-12-24T18:13:40.384Z,3.60
2018-12-24T18:16:09.328Z,4.77
2018-12-24T18:18:38.217Z,2.23
2018-12-24T18:21:07.139Z,2.60
2018-12-24T18:23:36.027Z,2.43
2018-12-24T18:26:04.951Z,3.30
2018-12-24T18:28:33.841Z,2.07
2018-12-24T18:31:02.754Z,2.40
2018-12-24T18:33:31.672Z,3.27
2018-12-24T18:36:00.582Z,4.67
2018-12-24T18:38:29.500Z,1.87
2018-12-24T18:40:58.417Z,3.90
2018-12-24T18:43:27.304Z,3.72
2018-12-24T18:45:56.188Z,1.73
2018-12-24T18:48:25.152Z,2.63
2018-12-24T18:50:53.997Z,3.23
2018-12-24T18:53:22.894Z,2.33
2018-12-24T18:55:51.785Z,2.23
2018-12-24T18:58:20.682Z,2.40
2018-12-24T19:00:49.570Z,2.27
2018-12-24T19:03:18.487Z,2.30
2018-12-24T19:05:47.377Z,1.97
2018-12-24T19:08:16.296Z,1.90
2018-12-24T19:10:45.192Z,1.83
2018-12-24T19:13:14.084Z,3.90
2018-12-24T19:15:43.057Z,5.33
2018-12-24T19:18:11.911Z,2.93
2018-12-24T19:20:40.796Z,4.57
2018-12-24T19:23:09.694Z,2.70
2018-12-24T19:25:38.592Z,3.67
2018-12-24T19:28:07.497Z,2.03
2018-12-24T19:30:36.392Z,3.83
2018-12-24T19:33:05.280Z,5.93
2018-12-24T19:35:34.155Z,3.87
2018-12-24T19:38:03.039Z,3.67
2018-12-24T19:40:31.952Z,5.40
2018-12-24T19:43:00.825Z,4.13
2018-12-24T19:45:29.740Z,3.57
2018-12-24T19:47:58.629Z,5.57
2018-12-24T19:50:27.517Z,5.30
2018-12-24T19:52:56.422Z,3.80
2018-12-24T19:55:25.333Z,7.00
2018-12-24T19:57:54.235Z,9.95
2018-12-24T20:00:23.128Z,4.37
2018-12-24T20:02:52.056Z,3.70
2018-12-24T20:05:20.964Z,2.13
2018-12-24T20:07:49.848Z,4.20
2018-12-24T20:10:18.757Z,2.57
2018-12-24T20:12:47.643Z,2.43
2018-12-24T20:15:16.539Z,2.50
2018-12-24T20:17:45.433Z,3.83
2018-12-24T20:20:14.358Z,2.70
2018-12-24T20:22:43.266Z,2.67
2018-12-24T20:25:12.129Z,2.33
2018-12-24T20:27:41.033Z,5.27
2018-12-24T20:30:09.949Z,4.43
2018-12-24T20:32:38.904Z,4.63
2018-12-24T20:35:07.859Z,11.13
2018-12-24T20:37:36.749Z,5.97
2018-12-24T20:40:05.719Z,3.57
2018-12-24T20:42:34.626Z,4.63
2018-12-24T20:45:03.506Z,2.67
2018-12-24T20:47:32.418Z,2.33
2018-12-24T20:50:01.454Z,3.23
2018-12-24T20:52:30.186Z,2.23
2018-12-24T20:54:59.106Z,6.53
2018-12-24T20:57:28.024Z,5.00
2018-12-24T20:59:56.951Z,3.93
2018-12-24T21:02:25.829Z,4.03
2018-12-24T21:04:54.748Z,4.17
2018-12-24T21:07:23.633Z,3.73
2018-12-24T21:09:52.500Z,3.87
2018-12-24T21:12:21.410Z,3.20
2018-12-24T21:14:50.338Z,3.53
2018-12-24T21:17:19.250Z,4.80
2018-12-24T21:19:48.144Z,5.03
2018-12-24T21:22:17.022Z,6.47
2018-12-24T21:24:47.592Z,4.37
2018-12-24T21:27:16.387Z,3.53
2018-12-24T21:29:45.293Z,5.80
2018-12-24T21:32:15.603Z,3.07
2018-12-24T21:34:44.392Z,6.93
2018-12-24T21:37:13.258Z,6.70
2018-12-24T21:39:42.178Z,8.63
2018-12-24T21:42:11.055Z,8.67
2018-12-24T21:44:39.995Z,8.13
2018-12-24T21:47:08.883Z,7.23
2018-12-24T21:49:37.763Z,5.47
2018-12-24T21:52:06.692Z,6.33
2018-12-24T21:54:35.571Z,11.77
2018-12-24T21:57:07.426Z,6.53
2018-12-24T21:59:36.319Z,9.70
2018-12-24T22:02:05.252Z,6.17
2018-12-24T22:04:34.132Z,8.35
2018-12-24T22:07:03.003Z,5.10
2018-12-24T22:09:31.909Z,6.20
2018-12-24T22:12:00.800Z,5.75
2018-12-24T22:14:29.664Z,6.20
2018-12-24T22:16:58.555Z,6.73
2018-12-24T22:19:27.448Z,5.30
2018-12-24T22:21:56.314Z,4.27
2018-12-24T22:24:25.273Z,7.40
2018-12-24T22:26:54.138Z,5.03
2018-12-24T22:29:23.031Z,5.23
2018-12-24T22:31:51.907Z,5.37
2018-12-24T22:34:20.970Z,6.20
2018-12-24T22:36:49.857Z,5.37
2018-12-24T22:39:18.766Z,6.77
2018-12-24T22:41:47.658Z,6.13
2018-12-24T22:44:16.537Z,7.20
2018-12-24T22:46:45.442Z,4.60
2018-12-24T22:49:14.341Z,5.50
2018-12-24T22:51:43.238Z,5.47
2018-12-24T22:54:12.114Z,4.37
2018-12-24T22:56:42.238Z,9.88
2018-12-24T22:59:09.964Z,12.63
2018-12-24T23:01:38.847Z,6.17
2018-12-24T23:04:07.708Z,9.67
2018-12-24T23:06:36.634Z,10.53
2018-12-24T23:09:08.336Z,9.67
2018-12-24T23:11:37.282Z,14.03
2018-12-24T23:14:06.222Z,9.47
2018-12-24T23:16:35.115Z,9.70
2018-12-24T23:19:04.066Z,10.43
2018-12-24T23:21:32.987Z,10.33
2018-12-24T23:24:01.897Z,9.93
2018-12-24T23:26:30.796Z,12.60
2018-12-24T23:28:59.713Z,10.17
2018-12-24T23:31:28.601Z,10.97
2018-12-24T23:33:57.491Z,11.67
2018-12-24T23:36:26.357Z,10.00
2018-12-24T23:38:55.318Z,10.43
2018-12-24T23:41:24.227Z,11.33
2018-12-24T23:43:53.135Z,11.73
2018-12-24T23:46:22.108Z,11.83
2018-12-24T23:48:57.697Z,13.03
2018-12-24T23:51:19.831Z,10.43
2018-12-24T23:53:48.733Z,12.93
2018-12-24T23:56:17.629Z,10.77
2018-12-24T23:58:46.517Z,13.73
